sensor_id;sensor_type;location;lat;lon;timestamp;temperature;humidity
52879;DHT22;38747;53.140;6.498;2022-10-31T00:02:10;12.10;99.90
52879;DHT22;38747;53.140;6.498;2022-10-31T00:04:36;12.10;99.90
52879;DHT22;38747;53.140;6.498;2022-10-31T00:07:01;12.10;99.90
52879;DHT22;38747;53.140;6.498;2022-10-31T00:09:27;12.10;99.90
52879;DHT22;38747;53.140;6.498;2022-10-31T00:11:52;12.00;99.90
52879;DHT22;38747;53.140;6.498;2022-10-31T00:14:18;12.00;99.90
52879;DHT22;38747;53.140;6.498;2022-10-31T00:16:44;12.00;99.90
52879;DHT22;38747;53.140;6.498;2022-10-31T00:19:09;12.00;99.90
52879;DHT22;38747;53.140;6.498;2022-10-31T00:21:35;12.00;99.90
52879;DHT22;38747;53.140;6.498;2022-10-31T00:24:01;12.00;99.90
52879;DHT22;38747;53.140;6.498;2022-10-31T00:26:28;12.00;99.90
52879;DHT22;38747;53.140;6.498;2022-10-31T00:28:54;12.00;99.90
52879;DHT22;38747;53.140;6.498;2022-10-31T00:31:20;11.90;99.90
52879;DHT22;38747;53.140;6.498;2022-10-31T00:33:45;11.90;99.90
52879;DHT22;38747;53.140;6.498;2022-10-31T00:36:17;11.90;99.90
52879;DHT22;38747;53.140;6.498;2022-10-31T00:38:44;11.90;99.90
52879;DHT22;38747;53.140;6.498;2022-10-31T00:41:11;11.90;99.90
52879;DHT22;38747;53.140;6.498;2022-10-31T00:43:37;11.80;99.90
52879;DHT22;38747;53.140;6.498;2022-10-31T00:46:02;11.80;99.90
52879;DHT22;38747;53.140;6.498;2022-10-31T00:48:28;11.80;99.90
52879;DHT22;38747;53.140;6.498;2022-10-31T00:50:54;11.70;99.90
52879;DHT22;38747;53.140;6.498;2022-10-31T00:53:20;11.70;99.90
52879;DHT22;38747;53.140;6.498;2022-10-31T00:55:46;11.70;99.90
52879;DHT22;38747;53.140;6.498;2022-10-31T00:58:12;11.70;99.90
52879;DHT22;38747;53.140;6.498;2022-10-31T01:00:38;11.70;99.90
52879;DHT22;38747;53.140;6.498;2022-10-31T01:03:04;11.70;99.90
52879;DHT22;38747;53.140;6.498;2022-10-31T01:05:29;11.70;99.90
52879;DHT22;38747;53.140;6.498;2022-10-31T01:07:55;11.70;99.90
52879;DHT22;38747;53.140;6.498;2022-10-31T01:10:20;11.70;99.90
52879;DHT22;38747;53.140;6.498;2022-10-31T01:12:47;11.60;99.90
52879;DHT22;38747;53.140;6.498;2022-10-31T01:15:20;11.60;99.90
52879;DHT22;38747;53.140;6.498;2022-10-31T01:17:46;11.60;99.90
52879;DHT22;38747;53.140;6.498;2022-10-31T01:20:13;11.50;99.90
52879;DHT22;38747;53.140;6.498;2022-10-31T01:22:38;11.60;99.90
52879;DHT22;38747;53.140;6.498;2022-10-31T01:25:05;11.60;99.90
52879;DHT22;38747;53.140;6.498;2022-10-31T01:27:31;11.60;99.90
52879;DHT22;38747;53.140;6.498;2022-10-31T01:29:57;11.50;99.90
52879;DHT22;38747;53.140;6.498;2022-10-31T01:32:23;11.50;99.90
52879;DHT22;38747;53.140;6.498;2022-10-31T01:34:49;11.50;99.90
52879;DHT22;38747;53.140;6.498;2022-10-31T01:37:14;11.50;99.90
52879;DHT22;38747;53.140;6.498;2022-10-31T01:39:40;11.50;99.90
52879;DHT22;38747;53.140;6.498;2022-10-31T01:42:06;11.50;99.90
52879;DHT22;38747;53.140;6.498;2022-10-31T01:49:42;11.50;99.90
52879;DHT22;38747;53.140;6.498;2022-10-31T01:52:27;11.50;99.90
52879;DHT22;38747;53.140;6.498;2022-10-31T01:55:04;11.40;99.90
52879;DHT22;38747;53.140;6.498;2022-10-31T01:57:31;11.40;99.90
52879;DHT22;38747;53.140;6.498;2022-10-31T02:00:03;11.40;99.90
52879;DHT22;38747;53.140;6.498;2022-10-31T02:02:30;11.40;99.90
52879;DHT22;38747;53.140;6.498;2022-10-31T02:04:57;11.40;99.90
52879;DHT22;38747;53.140;6.498;2022-10-31T02:07:36;11.40;99.90
52879;DHT22;38747;53.140;6.498;2022-10-31T02:10:05;11.40;99.90
52879;DHT22;38747;53.140;6.498;2022-10-31T02:12:32;11.40;99.90
52879;DHT22;38747;53.140;6.498;2022-10-31T02:15:00;11.30;99.90
52879;DHT22;38747;53.140;6.498;2022-10-31T02:17:26;11.30;99.90
52879;DHT22;38747;53.140;6.498;2022-10-31T02:20:21;11.30;99.90
52879;DHT22;38747;53.140;6.498;2022-10-31T02:25:59;11.30;99.90
52879;DHT22;38747;53.140;6.498;2022-10-31T02:31:43;11.20;99.90
52879;DHT22;38747;53.140;6.498;2022-10-31T02:37:01;11.10;99.90
52879;DHT22;38747;53.140;6.498;2022-10-31T02:39:51;11.10;99.90
52879;DHT22;38747;53.140;6.498;2022-10-31T02:42:25;11.10;99.90
52879;DHT22;38747;53.140;6.498;2022-10-31T02:45:11;11.10;99.90
52879;DHT22;38747;53.140;6.498;2022-10-31T02:47:38;11.00;99.90
52879;DHT22;38747;53.140;6.498;2022-10-31T02:50:31;11.00;99.90
52879;DHT22;38747;53.140;6.498;2022-10-31T02:52:58;11.00;99.90
52879;DHT22;38747;53.140;6.498;2022-10-31T02:58:01;11.00;99.90
52879;DHT22;38747;53.140;6.498;2022-10-31T03:00:30;10.90;99.90
52879;DHT22;38747;53.140;6.498;2022-10-31T03:03:02;10.90;99.90
52879;DHT22;38747;53.140;6.498;2022-10-31T03:10:58;10.90;99.90
52879;DHT22;38747;53.140;6.498;2022-10-31T03:13:35;10.90;99.90
52879;DHT22;38747;53.140;6.498;2022-10-31T03:16:29;10.90;99.90
52879;DHT22;38747;53.140;6.498;2022-10-31T03:19:07;10.80;99.90
52879;DHT22;38747;53.140;6.498;2022-10-31T03:21:57;10.80;99.90
52879;DHT22;38747;53.140;6.498;2022-10-31T03:24:27;10.80;99.90
52879;DHT22;38747;53.140;6.498;2022-10-31T03:26:58;10.70;99.90
52879;DHT22;38747;53.140;6.498;2022-10-31T03:29:27;10.70;99.90
52879;DHT22;38747;53.140;6.498;2022-10-31T03:34:22;10.70;99.90
52879;DHT22;38747;53.140;6.498;2022-10-31T03:36:50;10.70;99.90
52879;DHT22;38747;53.140;6.498;2022-10-31T03:39:19;10.70;99.90
52879;DHT22;38747;53.140;6.498;2022-10-31T03:41:53;10.70;99.90
52879;DHT22;38747;53.140;6.498;2022-10-31T03:44:21;10.70;99.90
52879;DHT22;38747;53.140;6.498;2022-10-31T03:46:47;10.70;99.90
52879;DHT22;38747;53.140;6.498;2022-10-31T03:49:13;10.70;99.90
52879;DHT22;38747;53.140;6.498;2022-10-31T03:51:54;10.70;99.90
52879;DHT22;38747;53.140;6.498;2022-10-31T03:54:25;10.70;99.90
52879;DHT22;38747;53.140;6.498;2022-10-31T03:56:56;10.60;99.90
52879;DHT22;38747;53.140;6.498;2022-10-31T03:59:33;10.60;99.90
52879;DHT22;38747;53.140;6.498;2022-10-31T04:02:05;10.50;99.90
52879;DHT22;38747;53.140;6.498;2022-10-31T04:04:33;10.40;99.90
52879;DHT22;38747;53.140;6.498;2022-10-31T04:07:00;10.40;99.90
52879;DHT22;38747;53.140;6.498;2022-10-31T04:09:28;10.30;99.90
52879;DHT22;38747;53.140;6.498;2022-10-31T04:11:56;10.30;99.90
52879;DHT22;38747;53.140;6.498;2022-10-31T04:14:25;10.20;99.90
52879;DHT22;38747;53.140;6.498;2022-10-31T04:16:52;10.20;99.90
52879;DHT22;38747;53.140;6.498;2022-10-31T04:19:17;10.20;99.90
52879;DHT22;38747;53.140;6.498;2022-10-31T04:21:43;10.10;99.90
52879;DHT22;38747;53.140;6.498;2022-10-31T04:24:09;10.00;99.90
52879;DHT22;38747;53.140;6.498;2022-10-31T04:26:35;10.00;99.90
52879;DHT22;38747;53.140;6.498;2022-10-31T04:29:01;9.90;99.90
52879;DHT22;38747;53.140;6.498;2022-10-31T04:31:26;9.90;99.90
52879;DHT22;38747;53.140;6.498;2022-10-31T04:33:52;9.80;99.90
52879;DHT22;38747;53.140;6.498;2022-10-31T04:36:18;9.80;99.90
52879;DHT22;38747;53.140;6.498;2022-10-31T04:38:43;9.80;99.90
52879;DHT22;38747;53.140;6.498;2022-10-31T04:41:09;9.80;99.90
52879;DHT22;38747;53.140;6.498;2022-10-31T04:43:35;9.80;99.90
52879;DHT22;38747;53.140;6.498;2022-10-31T04:46:00;9.70;99.90
52879;DHT22;38747;53.140;6.498;2022-10-31T04:48:26;9.80;99.90
52879;DHT22;38747;53.140;6.498;2022-10-31T04:50:52;9.80;99.90
52879;DHT22;38747;53.140;6.498;2022-10-31T04:53:17;9.80;99.90
52879;DHT22;38747;53.140;6.498;2022-10-31T04:55:43;9.80;99.90
52879;DHT22;38747;53.140;6.498;2022-10-31T04:58:09;9.80;99.90
52879;DHT22;38747;53.140;6.498;2022-10-31T05:00:34;9.80;99.90
52879;DHT22;38747;53.140;6.498;2022-10-31T05:03:00;9.70;99.90
52879;DHT22;38747;53.140;6.498;2022-10-31T05:05:30;9.70;99.90
52879;DHT22;38747;53.140;6.498;2022-10-31T05:07:56;9.70;99.90
52879;DHT22;38747;53.140;6.498;2022-10-31T05:10:24;9.70;99.90
52879;DHT22;38747;53.140;6.498;2022-10-31T05:12:53;9.70;99.90
52879;DHT22;38747;53.140;6.498;2022-10-31T05:15:21;9.60;99.90
52879;DHT22;38747;53.140;6.498;2022-10-31T05:17:47;9.70;99.90
52879;DHT22;38747;53.140;6.498;2022-10-31T05:20:15;9.70;99.90
52879;DHT22;38747;53.140;6.498;2022-10-31T05:22:48;9.70;99.90
52879;DHT22;38747;53.140;6.498;2022-10-31T05:25:14;9.70;99.90
52879;DHT22;38747;53.140;6.498;2022-10-31T05:27:41;9.70;99.90
52879;DHT22;38747;53.140;6.498;2022-10-31T05:30:08;9.70;99.90
52879;DHT22;38747;53.140;6.498;2022-10-31T05:32:41;9.70;99.90
52879;DHT22;38747;53.140;6.498;2022-10-31T05:35:08;9.70;99.90
52879;DHT22;38747;53.140;6.498;2022-10-31T05:37:38;9.70;99.90
52879;DHT22;38747;53.140;6.498;2022-10-31T05:40:05;9.70;99.90
52879;DHT22;38747;53.140;6.498;2022-10-31T05:42:31;9.70;99.90
52879;DHT22;38747;53.140;6.498;2022-10-31T05:44:57;9.70;99.90
52879;DHT22;38747;53.140;6.498;2022-10-31T05:47:23;9.70;99.90
52879;DHT22;38747;53.140;6.498;2022-10-31T05:49:49;9.60;99.90
52879;DHT22;38747;53.140;6.498;2022-10-31T05:52:14;9.60;99.90
52879;DHT22;38747;53.140;6.498;2022-10-31T05:54:40;9.60;99.90
52879;DHT22;38747;53.140;6.498;2022-10-31T05:57:06;9.60;99.90
52879;DHT22;38747;53.140;6.498;2022-10-31T05:59:32;9.60;99.90
52879;DHT22;38747;53.140;6.498;2022-10-31T06:01:57;9.60;99.90
52879;DHT22;38747;53.140;6.498;2022-10-31T06:04:23;9.60;99.90
52879;DHT22;38747;53.140;6.498;2022-10-31T06:06:49;9.60;99.90
52879;DHT22;38747;53.140;6.498;2022-10-31T06:09:14;9.50;99.90
52879;DHT22;38747;53.140;6.498;2022-10-31T06:11:40;9.50;99.90
52879;DHT22;38747;53.140;6.498;2022-10-31T06:14:06;9.50;99.90
52879;DHT22;38747;53.140;6.498;2022-10-31T06:16:31;9.50;99.90
52879;DHT22;38747;53.140;6.498;2022-10-31T06:18:57;9.50;99.90
52879;DHT22;38747;53.140;6.498;2022-10-31T06:21:23;9.50;99.90
52879;DHT22;38747;53.140;6.498;2022-10-31T06:23:48;9.50;99.90
52879;DHT22;38747;53.140;6.498;2022-10-31T06:26:14;9.50;99.90
52879;DHT22;38747;53.140;6.498;2022-10-31T06:28:40;9.50;99.90
52879;DHT22;38747;53.140;6.498;2022-10-31T06:31:05;9.50;99.90
52879;DHT22;38747;53.140;6.498;2022-10-31T06:33:32;9.50;99.90
52879;DHT22;38747;53.140;6.498;2022-10-31T06:35:57;9.50;99.90
52879;DHT22;38747;53.140;6.498;2022-10-31T06:38:23;9.50;99.90
52879;DHT22;38747;53.140;6.498;2022-10-31T06:40:50;9.40;99.90
52879;DHT22;38747;53.140;6.498;2022-10-31T06:43:16;9.40;99.90
52879;DHT22;38747;53.140;6.498;2022-10-31T06:45:41;9.30;99.90
52879;DHT22;38747;53.140;6.498;2022-10-31T06:48:07;9.30;99.90
52879;DHT22;38747;53.140;6.498;2022-10-31T06:50:33;9.30;99.90
52879;DHT22;38747;53.140;6.498;2022-10-31T06:52:58;9.20;99.90
52879;DHT22;38747;53.140;6.498;2022-10-31T06:55:25;9.20;99.90
52879;DHT22;38747;53.140;6.498;2022-10-31T06:57:57;9.20;99.90
52879;DHT22;38747;53.140;6.498;2022-10-31T07:00:23;9.20;99.90
52879;DHT22;38747;53.140;6.498;2022-10-31T07:03:10;9.20;99.90
52879;DHT22;38747;53.140;6.498;2022-10-31T07:05:37;9.20;99.90
52879;DHT22;38747;53.140;6.498;2022-10-31T07:08:05;9.20;99.90
52879;DHT22;38747;53.140;6.498;2022-10-31T07:10:33;9.10;99.90
52879;DHT22;38747;53.140;6.498;2022-10-31T07:13:01;9.10;99.90
52879;DHT22;38747;53.140;6.498;2022-10-31T07:15:28;9.10;99.90
52879;DHT22;38747;53.140;6.498;2022-10-31T07:17:59;9.10;99.90
52879;DHT22;38747;53.140;6.498;2022-10-31T07:20:26;9.10;99.90
52879;DHT22;38747;53.140;6.498;2022-10-31T07:22:52;9.20;99.90
52879;DHT22;38747;53.140;6.498;2022-10-31T07:25:22;9.20;99.90
52879;DHT22;38747;53.140;6.498;2022-10-31T07:27:50;9.20;99.90
52879;DHT22;38747;53.140;6.498;2022-10-31T07:30:16;9.20;99.90
52879;DHT22;38747;53.140;6.498;2022-10-31T07:32:49;9.20;99.90
52879;DHT22;38747;53.140;6.498;2022-10-31T07:35:20;9.30;99.90
52879;DHT22;38747;53.140;6.498;2022-10-31T07:37:47;9.30;99.90
52879;DHT22;38747;53.140;6.498;2022-10-31T07:40:13;9.40;99.90
52879;DHT22;38747;53.140;6.498;2022-10-31T07:42:41;9.40;99.90
52879;DHT22;38747;53.140;6.498;2022-10-31T07:45:09;9.50;99.90
52879;DHT22;38747;53.140;6.498;2022-10-31T07:47:40;9.60;99.90
52879;DHT22;38747;53.140;6.498;2022-10-31T07:50:09;9.70;99.90
52879;DHT22;38747;53.140;6.498;2022-10-31T07:52:38;9.70;99.90
52879;DHT22;38747;53.140;6.498;2022-10-31T07:55:05;9.90;99.90
52879;DHT22;38747;53.140;6.498;2022-10-31T07:57:31;10.00;99.90
52879;DHT22;38747;53.140;6.498;2022-10-31T07:59:57;10.10;99.90
52879;DHT22;38747;53.140;6.498;2022-10-31T08:02:23;10.10;99.90
52879;DHT22;38747;53.140;6.498;2022-10-31T08:04:49;10.20;99.90
52879;DHT22;38747;53.140;6.498;2022-10-31T08:07:15;10.30;99.90
52879;DHT22;38747;53.140;6.498;2022-10-31T08:09:41;10.40;99.90
52879;DHT22;38747;53.140;6.498;2022-10-31T08:12:06;10.50;99.90
52879;DHT22;38747;53.140;6.498;2022-10-31T08:14:32;10.50;99.90
52879;DHT22;38747;53.140;6.498;2022-10-31T08:16:57;10.60;99.90
52879;DHT22;38747;53.140;6.498;2022-10-31T08:19:23;10.60;99.90
52879;DHT22;38747;53.140;6.498;2022-10-31T08:21:52;10.70;99.90
52879;DHT22;38747;53.140;6.498;2022-10-31T08:24:20;10.80;99.90
52879;DHT22;38747;53.140;6.498;2022-10-31T08:26:46;10.80;99.90
52879;DHT22;38747;53.140;6.498;2022-10-31T08:29:12;10.80;99.90
52879;DHT22;38747;53.140;6.498;2022-10-31T08:31:38;10.80;99.90
52879;DHT22;38747;53.140;6.498;2022-10-31T08:34:03;10.80;99.90
52879;DHT22;38747;53.140;6.498;2022-10-31T08:36:29;10.80;99.90
52879;DHT22;38747;53.140;6.498;2022-10-31T08:38:58;10.80;99.90
52879;DHT22;38747;53.140;6.498;2022-10-31T08:41:24;10.80;99.90
52879;DHT22;38747;53.140;6.498;2022-10-31T08:43:50;10.80;99.90
52879;DHT22;38747;53.140;6.498;2022-10-31T08:46:16;10.90;99.90
52879;DHT22;38747;53.140;6.498;2022-10-31T08:48:42;10.90;99.90
52879;DHT22;38747;53.140;6.498;2022-10-31T08:51:08;10.90;99.90
52879;DHT22;38747;53.140;6.498;2022-10-31T08:53:35;11.00;99.90
52879;DHT22;38747;53.140;6.498;2022-10-31T08:56:02;11.00;99.90
52879;DHT22;38747;53.140;6.498;2022-10-31T08:58:28;11.10;99.90
52879;DHT22;38747;53.140;6.498;2022-10-31T09:00:54;11.10;99.90
52879;DHT22;38747;53.140;6.498;2022-10-31T09:03:29;11.10;99.90
52879;DHT22;38747;53.140;6.498;2022-10-31T09:06:00;11.20;99.90
52879;DHT22;38747;53.140;6.498;2022-10-31T09:08:26;11.20;99.90
52879;DHT22;38747;53.140;6.498;2022-10-31T09:10:56;11.20;99.90
52879;DHT22;38747;53.140;6.498;2022-10-31T09:13:21;11.30;99.90
52879;DHT22;38747;53.140;6.498;2022-10-31T09:15:49;11.30;99.90
52879;DHT22;38747;53.140;6.498;2022-10-31T09:18:17;11.40;99.90
52879;DHT22;38747;53.140;6.498;2022-10-31T09:20:44;11.40;99.90
52879;DHT22;38747;53.140;6.498;2022-10-31T09:23:16;11.40;99.90
52879;DHT22;38747;53.140;6.498;2022-10-31T09:25:42;11.50;99.90
52879;DHT22;38747;53.140;6.498;2022-10-31T09:28:11;11.50;99.90
52879;DHT22;38747;53.140;6.498;2022-10-31T09:30:37;11.60;99.90
52879;DHT22;38747;53.140;6.498;2022-10-31T09:33:05;11.60;99.90
52879;DHT22;38747;53.140;6.498;2022-10-31T09:35:31;11.70;99.90
52879;DHT22;38747;53.140;6.498;2022-10-31T09:37:59;11.60;99.90
52879;DHT22;38747;53.140;6.498;2022-10-31T09:41:01;11.70;99.90
52879;DHT22;38747;53.140;6.498;2022-10-31T09:52:10;12.00;99.90
52879;DHT22;38747;53.140;6.498;2022-10-31T09:57:15;12.20;99.90
52879;DHT22;38747;53.140;6.498;2022-10-31T09:59:44;12.20;99.90
52879;DHT22;38747;53.140;6.498;2022-10-31T10:05:59;12.40;99.90
52879;DHT22;38747;53.140;6.498;2022-10-31T10:08:19;12.40;99.90
52879;DHT22;38747;53.140;6.498;2022-10-31T10:10:59;12.50;99.90
52879;DHT22;38747;53.140;6.498;2022-10-31T10:14:01;12.60;99.90
52879;DHT22;38747;53.140;6.498;2022-10-31T10:16:36;12.70;99.90
52879;DHT22;38747;53.140;6.498;2022-10-31T10:27:49;12.90;99.90
52879;DHT22;38747;53.140;6.498;2022-10-31T10:30:54;12.80;99.90
52879;DHT22;38747;53.140;6.498;2022-10-31T10:35:46;12.90;99.90
52879;DHT22;38747;53.140;6.498;2022-10-31T10:38:23;13.00;99.90
52879;DHT22;38747;53.140;6.498;2022-10-31T10:40:50;13.00;99.90
52879;DHT22;38747;53.140;6.498;2022-10-31T10:43:23;13.00;99.90
52879;DHT22;38747;53.140;6.498;2022-10-31T10:48:52;12.90;99.90
52879;DHT22;38747;53.140;6.498;2022-10-31T10:51:23;13.00;99.90
52879;DHT22;38747;53.140;6.498;2022-10-31T10:57:16;13.00;99.90
52879;DHT22;38747;53.140;6.498;2022-10-31T10:59:46;13.10;99.90
52879;DHT22;38747;53.140;6.498;2022-10-31T11:02:23;13.20;99.90
52879;DHT22;38747;53.140;6.498;2022-10-31T11:04:55;13.20;99.90
52879;DHT22;38747;53.140;6.498;2022-10-31T11:07:21;13.20;99.90
52879;DHT22;38747;53.140;6.498;2022-10-31T11:09:47;13.30;99.90
52879;DHT22;38747;53.140;6.498;2022-10-31T11:12:24;13.40;99.90
52879;DHT22;38747;53.140;6.498;2022-10-31T11:14:58;13.40;99.90
52879;DHT22;38747;53.140;6.498;2022-10-31T11:17:30;13.50;99.90
52879;DHT22;38747;53.140;6.498;2022-10-31T11:20:05;13.60;99.90
52879;DHT22;38747;53.140;6.498;2022-10-31T11:22:31;13.60;99.90
52879;DHT22;38747;53.140;6.498;2022-10-31T11:24:57;13.70;99.90
52879;DHT22;38747;53.140;6.498;2022-10-31T11:27:24;13.70;99.90
52879;DHT22;38747;53.140;6.498;2022-10-31T11:29:51;13.70;99.90
52879;DHT22;38747;53.140;6.498;2022-10-31T11:32:22;13.70;99.90
52879;DHT22;38747;53.140;6.498;2022-10-31T11:34:59;13.80;99.90
52879;DHT22;38747;53.140;6.498;2022-10-31T11:37:28;13.80;99.90
52879;DHT22;38747;53.140;6.498;2022-10-31T11:40:00;13.80;99.90
52879;DHT22;38747;53.140;6.498;2022-10-31T11:42:39;13.80;99.90
52879;DHT22;38747;53.140;6.498;2022-10-31T11:45:15;13.80;99.90
52879;DHT22;38747;53.140;6.498;2022-10-31T11:47:47;13.80;99.90
52879;DHT22;38747;53.140;6.498;2022-10-31T11:50:36;13.90;99.90
52879;DHT22;38747;53.140;6.498;2022-10-31T11:53:10;13.90;99.90
52879;DHT22;38747;53.140;6.498;2022-10-31T11:55:38;14.00;99.90
52879;DHT22;38747;53.140;6.498;2022-10-31T11:58:23;14.00;99.90
52879;DHT22;38747;53.140;6.498;2022-10-31T12:00:51;14.10;99.90
52879;DHT22;38747;53.140;6.498;2022-10-31T12:03:26;14.20;99.90
52879;DHT22;38747;53.140;6.498;2022-10-31T12:06:00;14.20;99.90
52879;DHT22;38747;53.140;6.498;2022-10-31T12:08:30;14.20;99.90
52879;DHT22;38747;53.140;6.498;2022-10-31T12:27:55;14.70;99.90
52879;DHT22;38747;53.140;6.498;2022-10-31T12:30:33;14.80;99.90
52879;DHT22;38747;53.140;6.498;2022-10-31T12:33:14;14.80;99.90
52879;DHT22;38747;53.140;6.498;2022-10-31T12:35:55;14.80;99.90
52879;DHT22;38747;53.140;6.498;2022-10-31T13:10:40;14.90;99.90
52879;DHT22;38747;53.140;6.498;2022-10-31T13:13:23;14.90;99.90
52879;DHT22;38747;53.140;6.498;2022-10-31T13:15:56;14.90;99.90
52879;DHT22;38747;53.140;6.498;2022-10-31T13:18:35;14.90;99.90
52879;DHT22;38747;53.140;6.498;2022-10-31T13:21:06;14.90;99.90
52879;DHT22;38747;53.140;6.498;2022-10-31T13:23:35;14.80;99.90
52879;DHT22;38747;53.140;6.498;2022-10-31T13:26:15;14.80;99.90
52879;DHT22;38747;53.140;6.498;2022-10-31T13:29:11;14.80;99.90
52879;DHT22;38747;53.140;6.498;2022-10-31T13:31:42;14.80;99.90
52879;DHT22;38747;53.140;6.498;2022-10-31T13:34:37;14.90;99.90
52879;DHT22;38747;53.140;6.498;2022-10-31T13:37:30;14.90;99.90
52879;DHT22;38747;53.140;6.498;2022-10-31T13:40:32;14.90;99.90
52879;DHT22;38747;53.140;6.498;2022-10-31T13:45:32;14.90;99.90
52879;DHT22;38747;53.140;6.498;2022-10-31T13:51:08;14.90;99.90
52879;DHT22;38747;53.140;6.498;2022-10-31T13:53:56;14.90;99.90
52879;DHT22;38747;53.140;6.498;2022-10-31T13:56:27;14.90;99.90
52879;DHT22;38747;53.140;6.498;2022-10-31T13:59:19;14.90;99.90
52879;DHT22;38747;53.140;6.498;2022-10-31T14:02:00;14.90;99.90
52879;DHT22;38747;53.140;6.498;2022-10-31T14:04:32;14.90;99.90
52879;DHT22;38747;53.140;6.498;2022-10-31T14:07:10;14.90;99.90
52879;DHT22;38747;53.140;6.498;2022-10-31T14:09:39;14.80;99.90
52879;DHT22;38747;53.140;6.498;2022-10-31T14:15:13;14.80;99.90
52879;DHT22;38747;53.140;6.498;2022-10-31T14:17:47;14.80;99.90
52879;DHT22;38747;53.140;6.498;2022-10-31T14:22:40;14.70;99.90
52879;DHT22;38747;53.140;6.498;2022-10-31T14:27:50;14.70;99.90
52879;DHT22;38747;53.140;6.498;2022-10-31T14:30:19;14.70;99.90
52879;DHT22;38747;53.140;6.498;2022-10-31T14:33:01;14.70;99.90
52879;DHT22;38747;53.140;6.498;2022-10-31T14:35:56;14.70;99.90
52879;DHT22;38747;53.140;6.498;2022-10-31T14:44:34;14.70;99.90
52879;DHT22;38747;53.140;6.498;2022-10-31T14:52:08;14.60;99.90
52879;DHT22;38747;53.140;6.498;2022-10-31T14:54:39;14.60;99.90
52879;DHT22;38747;53.140;6.498;2022-10-31T14:57:13;14.60;99.90
52879;DHT22;38747;53.140;6.498;2022-10-31T14:59:47;14.60;99.90
52879;DHT22;38747;53.140;6.498;2022-10-31T15:05:10;14.50;99.90
52879;DHT22;38747;53.140;6.498;2022-10-31T15:07:47;14.50;99.90
52879;DHT22;38747;53.140;6.498;2022-10-31T15:10:28;14.40;99.90
52879;DHT22;38747;53.140;6.498;2022-10-31T15:12:55;14.40;99.90
52879;DHT22;38747;53.140;6.498;2022-10-31T15:15:23;14.40;99.90
52879;DHT22;38747;53.140;6.498;2022-10-31T15:17:54;14.30;99.90
52879;DHT22;38747;53.140;6.498;2022-10-31T15:20:22;14.30;99.90
52879;DHT22;38747;53.140;6.498;2022-10-31T15:22:48;14.20;99.90
52879;DHT22;38747;53.140;6.498;2022-10-31T15:25:18;14.20;99.90
52879;DHT22;38747;53.140;6.498;2022-10-31T15:27:44;14.20;99.90
52879;DHT22;38747;53.140;6.498;2022-10-31T15:30:22;14.10;99.90
52879;DHT22;38747;53.140;6.498;2022-10-31T15:32:48;14.10;99.90
52879;DHT22;38747;53.140;6.498;2022-10-31T15:35:28;14.10;99.90
52879;DHT22;38747;53.140;6.498;2022-10-31T15:37:56;14.10;99.90
52879;DHT22;38747;53.140;6.498;2022-10-31T15:40:23;14.00;99.90
52879;DHT22;38747;53.140;6.498;2022-10-31T15:42:56;14.00;99.90
52879;DHT22;38747;53.140;6.498;2022-10-31T15:45:25;14.00;99.90
52879;DHT22;38747;53.140;6.498;2022-10-31T15:48:02;14.00;99.90
52879;DHT22;38747;53.140;6.498;2022-10-31T15:50:37;13.90;99.90
52879;DHT22;38747;53.140;6.498;2022-10-31T15:53:06;13.90;99.90
52879;DHT22;38747;53.140;6.498;2022-10-31T15:55:51;13.90;99.90
52879;DHT22;38747;53.140;6.498;2022-10-31T15:58:18;13.80;99.90
52879;DHT22;38747;53.140;6.498;2022-10-31T16:00:44;13.80;99.90
52879;DHT22;38747;53.140;6.498;2022-10-31T16:03:23;13.80;99.90
52879;DHT22;38747;53.140;6.498;2022-10-31T16:05:52;13.80;99.90
52879;DHT22;38747;53.140;6.498;2022-10-31T16:16:31;13.70;99.90
52879;DHT22;38747;53.140;6.498;2022-10-31T16:18:59;13.70;99.90
52879;DHT22;38747;53.140;6.498;2022-10-31T16:21:35;13.70;99.90
52879;DHT22;38747;53.140;6.498;2022-10-31T16:24:11;13.70;99.90
52879;DHT22;38747;53.140;6.498;2022-10-31T16:26:39;13.70;99.90
52879;DHT22;38747;53.140;6.498;2022-10-31T16:29:32;13.70;99.90
52879;DHT22;38747;53.140;6.498;2022-10-31T16:31:57;13.70;99.90
52879;DHT22;38747;53.140;6.498;2022-10-31T16:34:23;13.70;99.90
52879;DHT22;38747;53.140;6.498;2022-10-31T16:36:49;13.60;99.90
52879;DHT22;38747;53.140;6.498;2022-10-31T16:39:15;13.60;99.90
52879;DHT22;38747;53.140;6.498;2022-10-31T16:41:44;13.60;99.90
52879;DHT22;38747;53.140;6.498;2022-10-31T16:44:24;13.60;99.90
52879;DHT22;38747;53.140;6.498;2022-10-31T16:49:31;13.50;99.90
52879;DHT22;38747;53.140;6.498;2022-10-31T16:52:00;13.50;99.90
52879;DHT22;38747;53.140;6.498;2022-10-31T16:54:26;13.50;99.90
52879;DHT22;38747;53.140;6.498;2022-10-31T16:56:54;13.50;99.90
52879;DHT22;38747;53.140;6.498;2022-10-31T16:59:19;13.50;99.90
52879;DHT22;38747;53.140;6.498;2022-10-31T17:01:48;13.50;99.90
52879;DHT22;38747;53.140;6.498;2022-10-31T17:04:14;13.50;99.90
52879;DHT22;38747;53.140;6.498;2022-10-31T17:06:41;13.50;99.90
52879;DHT22;38747;53.140;6.498;2022-10-31T17:09:07;13.40;99.90
52879;DHT22;38747;53.140;6.498;2022-10-31T17:11:33;13.40;99.90
52879;DHT22;38747;53.140;6.498;2022-10-31T17:13:59;13.50;99.90
52879;DHT22;38747;53.140;6.498;2022-10-31T17:16:25;13.50;99.90
52879;DHT22;38747;53.140;6.498;2022-10-31T17:18:51;13.40;99.90
52879;DHT22;38747;53.140;6.498;2022-10-31T17:21:23;13.40;99.90
52879;DHT22;38747;53.140;6.498;2022-10-31T17:23:50;13.40;99.90
52879;DHT22;38747;53.140;6.498;2022-10-31T17:26:17;13.40;99.90
52879;DHT22;38747;53.140;6.498;2022-10-31T17:28:43;13.50;99.90
52879;DHT22;38747;53.140;6.498;2022-10-31T17:31:22;13.40;99.90
52879;DHT22;38747;53.140;6.498;2022-10-31T17:33:49;13.40;99.90
52879;DHT22;38747;53.140;6.498;2022-10-31T17:36:14;13.40;99.90
52879;DHT22;38747;53.140;6.498;2022-10-31T17:38:40;13.40;99.90
52879;DHT22;38747;53.140;6.498;2022-10-31T17:41:06;13.40;99.90
52879;DHT22;38747;53.140;6.498;2022-10-31T17:43:32;13.40;99.90
52879;DHT22;38747;53.140;6.498;2022-10-31T17:45:59;13.30;99.90
52879;DHT22;38747;53.140;6.498;2022-10-31T17:48:26;13.40;99.90
52879;DHT22;38747;53.140;6.498;2022-10-31T17:50:51;13.40;99.90
52879;DHT22;38747;53.140;6.498;2022-10-31T17:53:17;13.40;99.90
52879;DHT22;38747;53.140;6.498;2022-10-31T17:55:43;13.30;99.90
52879;DHT22;38747;53.140;6.498;2022-10-31T17:58:09;13.40;99.90
52879;DHT22;38747;53.140;6.498;2022-10-31T18:00:39;13.40;99.90
52879;DHT22;38747;53.140;6.498;2022-10-31T18:03:06;13.40;99.90
52879;DHT22;38747;53.140;6.498;2022-10-31T18:05:32;13.40;99.90
52879;DHT22;38747;53.140;6.498;2022-10-31T18:07:57;13.40;99.90
52879;DHT22;38747;53.140;6.498;2022-10-31T18:10:24;13.40;99.90
52879;DHT22;38747;53.140;6.498;2022-10-31T18:12:50;13.40;99.90
52879;DHT22;38747;53.140;6.498;2022-10-31T18:15:16;13.40;99.90
52879;DHT22;38747;53.140;6.498;2022-10-31T18:17:42;13.40;99.90